Time;durP1;ratioP1;P1;durP2;ratioP2;P2;SDS_P1;SDS_P2;PMS_P1;PMS_P2;Temp;Humidity;BMP_temperature;BMP_pressure;BME280_temperature;BME280_humidity;BME280_pressure;Samples;Min_cycle;Max_cycle;Signal;HPM_P1;HPM_P2
2022/11/19 00:00:19;;;;;;;10.45;3.62;;;26.80;90.30;;;;;;1895154;74;21537;-83
2022/11/19 00:02:54;;;;;;;9.50;3.77;;;26.80;90.30;;;;;;1914034;74;21159;-85
2022/11/19 00:05:25;;;;;;;9.10;3.58;;;26.80;90.30;;;;;;1902121;73;21178;-84
2022/11/19 00:07:56;;;;;;;13.00;4.40;;;26.80;90.30;;;;;;1916027;74;21590;-84
2022/11/19 00:10:34;;;;;;;10.30;3.75;;;26.80;90.30;;;;;;1904966;74;21117;-84
2022/11/19 00:13:16;;;;;;;;;;;;;;;;;;;;;
2022/11/19 00:15:49;;;;;;;8.63;3.92;;;26.80;90.30;;;;;;1911746;73;21061;-84
2022/11/19 00:18:20;;;;;;;13.90;4.15;;;26.80;90.30;;;;;;1918757;74;21144;-84
2022/11/19 00:20:54;;;;;;;8.18;4.12;;;26.80;90.20;;;;;;1930060;73;21069;-85
2022/11/19 00:23:24;;;;;;;11.18;3.92;;;26.80;90.20;;;;;;1915871;75;21150;-84
2022/11/19 00:25:55;;;;;;;8.85;3.80;;;26.90;90.20;;;;;;1917592;74;21056;-84
2022/11/19 00:28:26;;;;;;;9.00;3.67;;;26.90;90.10;;;;;;1915118;73;21146;-84
2022/11/19 00:31:05;;;;;;;13.15;4.80;;;26.90;90.00;;;;;;1911775;74;21633;-84
2022/11/19 00:33:37;;;;;;;9.40;4.67;;;26.90;90.00;;;;;;1922363;74;21115;-84
2022/11/19 00:36:10;;;;;;;12.00;6.40;;;27.00;90.00;;;;;;1879245;75;21115;-84
2022/11/19 00:38:41;;;;;;;10.93;5.00;;;27.00;90.00;;;;;;1920737;73;21175;-86
2022/11/19 00:41:12;;;;;;;9.45;4.25;;;27.00;90.00;;;;;;1931404;73;21143;-84
2022/11/19 00:43:48;;;;;;;9.23;4.28;;;27.00;90.00;;;;;;1913975;73;21227;-84
2022/11/19 00:46:27;;;;;;;10.60;4.40;;;27.00;89.90;;;;;;1911640;73;21135;-84
2022/11/19 00:49:05;;;;;;;9.30;4.78;;;27.00;89.90;;;;;;1922699;73;21181;-83
2022/11/19 00:51:36;;;;;;;9.75;4.22;;;27.10;90.00;;;;;;1912768;73;21603;-84
2022/11/19 00:54:07;;;;;;;7.83;4.37;;;27.20;89.80;;;;;;1915641;73;21119;-85
2022/11/19 00:56:38;;;;;;;7.95;4.22;;;27.20;89.80;;;;;;1915814;73;21228;-82
2022/11/19 00:59:10;;;;;;;10.70;5.42;;;27.30;89.70;;;;;;1916694;74;21204;-84
2022/11/19 01:01:41;;;;;;;7.40;4.00;;;27.30;89.40;;;;;;1909028;75;21134;-84
2022/11/19 01:04:12;;;;;;;8.88;4.10;;;27.40;90.00;;;;;;1903529;73;21127;-85
2022/11/19 01:06:43;;;;;;;11.08;3.77;;;27.50;88.70;;;;;;1912210;75;21580;-82
2022/11/19 01:09:13;;;;;;;8.13;3.30;;;27.50;88.30;;;;;;1918156;73;21114;-75
2022/11/19 01:11:45;;;;;;;8.10;3.33;;;27.60;88.10;;;;;;1903130;75;21614;-75
2022/11/19 01:14:18;;;;;;;8.80;3.58;;;27.60;87.90;;;;;;1918775;73;21072;-75
2022/11/19 01:16:49;;;;;;;8.63;3.05;;;27.60;87.30;;;;;;1899072;75;21217;-75
2022/11/19 01:19:20;;;;;;;7.90;3.22;;;27.60;87.10;;;;;;1904831;73;21192;-76
2022/11/19 01:21:59;;;;;;;7.60;3.25;;;27.70;87.00;;;;;;1909679;73;21139;-76
2022/11/19 01:24:29;;;;;;;7.90;2.90;;;27.70;87.30;;;;;;1926149;73;21222;-76
2022/11/19 01:27:00;;;;;;;8.48;3.90;;;27.70;87.00;;;;;;1897249;73;21151;-76
2022/11/19 01:29:33;;;;;;;7.72;3.12;;;27.70;86.70;;;;;;1905161;73;21136;-75
2022/11/19 01:32:23;;;;;;;5.70;3.05;;;27.80;86.70;;;;;;1907290;73;21529;-75
2022/11/19 01:34:54;;;;;;;9.85;3.75;;;27.80;86.60;;;;;;1928459;73;21151;-75
2022/11/19 01:37:26;;;;;;;10.90;3.75;;;27.70;86.70;;;;;;1910532;74;21120;-75
2022/11/19 01:39:57;;;;;;;9.35;3.30;;;27.70;86.90;;;;;;1869329;75;21253;-75
2022/11/19 01:45:43;;;;;;;6.37;3.30;;;27.70;86.70;;;;;;1903691;73;21672;-75
2022/11/19 01:48:25;;;;;;;7.53;3.55;;;27.80;86.50;;;;;;1928565;73;21545;-74
2022/11/19 01:50:58;;;;;;;23.27;5.15;;;27.80;86.60;;;;;;1883805;75;21069;-75
2022/11/19 01:53:34;;;;;;;32.93;6.75;;;27.80;86.90;;;;;;1924285;74;21452;-76
2022/11/19 01:56:12;;;;;;;13.80;5.33;;;27.90;86.80;;;;;;1895771;73;21107;-77
2022/11/19 01:58:45;;;;;;;11.48;5.95;;;27.90;86.90;;;;;;1864163;75;21235;-76
2022/11/19 02:01:18;;;;;;;11.53;5.37;;;27.90;86.80;;;;;;1864766;76;22139;-77
2022/11/19 02:03:53;;;;;;;8.33;4.80;;;28.00;86.70;;;;;;1912029;73;21088;-76
2022/11/19 02:06:24;;;;;;;8.75;4.08;;;28.00;86.50;;;;;;1908864;74;21147;-75
2022/11/19 02:08:55;;;;;;;11.53;4.28;;;28.00;86.20;;;;;;1902956;75;21115;-76
2022/11/19 02:11:56;;;;;;;7.85;3.35;;;28.10;86.00;;;;;;1908477;73;21204;-77
2022/11/19 02:14:40;;;;;;;7.58;3.15;;;28.10;85.90;;;;;;1907490;74;21183;-76
2022/11/19 02:17:37;;;;;;;;;;;;;;;;;;;;;
2022/11/19 02:20:43;;;;;;;8.93;4.45;;;28.20;85.20;;;;;;1862692;73;21178;-77
2022/11/19 02:23:29;;;;;;;11.85;3.75;;;28.20;85.10;;;;;;1914756;73;21166;-77
2022/11/19 02:26:37;;;;;;;8.75;3.47;;;28.30;85.20;;;;;;1902805;75;21213;-75
2022/11/19 02:29:34;;;;;;;6.22;3.05;;;28.30;85.50;;;;;;1816680;77;21281;-79
2022/11/19 02:32:55;;;;;;;7.97;3.10;;;28.30;84.20;;;;;;1891044;73;21649;-77
2022/11/19 02:35:58;;;;;;;6.62;3.30;;;28.30;84.10;;;;;;1867549;75;21136;-76
2022/11/19 02:38:50;;;;;;;8.28;3.05;;;28.40;84.20;;;;;;1907610;73;21111;-75
2022/11/19 02:41:35;;;;;;;7.47;3.08;;;28.50;84.20;;;;;;1900607;74;21186;-79
2022/11/19 02:48:16;;;;;;;5.25;3.65;;;28.70;83.50;;;;;;1784682;78;21566;-78
2022/11/19 02:50:52;;;;;;;7.17;3.20;;;28.90;82.50;;;;;;1868229;75;21262;-75
2022/11/19 02:53:23;;;;;;;5.60;2.77;;;29.00;82.00;;;;;;1903066;73;21124;-76
2022/11/19 02:56:20;;;;;;;8.45;4.15;;;29.20;81.10;;;;;;1908908;73;21331;-76
2022/11/19 03:07:29;;;;;;;6.83;2.95;;;29.50;78.60;;;;;;1794975;76;21152;-75
2022/11/19 03:10:02;;;;;;;6.75;2.83;;;29.50;79.40;;;;;;1730628;82;21237;-77
2022/11/19 03:16:40;;;;;;;7.05;2.20;;;29.60;78.60;;;;;;1758719;80;21760;-76
2022/11/19 03:18:54;;;;;;;7.75;1.90;;;29.70;77.50;;;;;;1730487;81;21226;-76
2022/11/19 03:21:36;;;;;;;4.58;2.05;;;29.80;76.30;;;;;;1757543;81;21139;-76
2022/11/19 03:24:13;;;;;;;5.12;2.10;;;29.80;75.50;;;;;;1755012;81;21598;-76
2022/11/19 03:26:46;;;;;;;7.15;2.12;;;29.90;75.80;;;;;;1744983;80;21125;-76
2022/11/19 03:29:19;;;;;;;5.30;2.00;;;29.90;75.60;;;;;;1707359;83;21190;-76
2022/11/19 03:31:53;;;;;;;3.50;1.85;;;30.00;75.60;;;;;;1704933;83;21837;-76
2022/11/19 03:34:25;;;;;;;4.33;1.90;;;30.10;74.90;;;;;;1758963;79;21749;-75
2022/11/19 03:36:59;;;;;;;4.53;1.98;;;30.10;73.40;;;;;;1752887;81;21333;-75
2022/11/19 03:39:30;;;;;;;6.25;2.87;;;30.20;74.30;;;;;;1757164;73;22515;-75
2022/11/19 03:42:02;;;;;;;5.87;3.75;;;30.30;73.20;;;;;;1918495;73;21119;-77
2022/11/19 03:44:42;;;;;;;3.40;1.70;;;30.40;72.00;;;;;;1919886;73;21683;-76
2022/11/19 03:47:15;;;;;;;8.08;2.10;;;30.50;71.00;;;;;;1903238;74;21083;-75
2022/11/19 03:49:49;;;;;;;4.58;1.75;;;30.60;70.40;;;;;;1919793;73;21155;-75
2022/11/19 03:52:21;;;;;;;6.42;2.47;;;30.80;70.80;;;;;;1918768;73;21524;-77
2022/11/19 03:54:57;;;;;;;9.75;2.25;;;31.00;70.50;;;;;;1910298;74;21749;-76
2022/11/19 03:57:29;;;;;;;7.75;2.62;;;31.20;70.40;;;;;;1919292;73;21159;-74
2022/11/19 04:00:03;;;;;;;5.95;2.10;;;31.30;70.30;;;;;;1899538;75;21194;-76
2022/11/19 04:02:35;;;;;;;3.25;1.67;;;31.40;70.50;;;;;;1912352;73;21173;-76
2022/11/19 04:05:06;;;;;;;4.40;1.92;;;31.40;70.00;;;;;;1912937;73;21217;-74
2022/11/19 04:07:38;;;;;;;6.87;2.40;;;31.30;70.90;;;;;;1906558;74;21072;-74
2022/11/19 04:10:10;;;;;;;4.12;2.08;;;31.20;70.90;;;;;;1942802;74;21181;-74
2022/11/19 04:12:40;;;;;;;5.10;2.42;;;31.10;70.60;;;;;;1904449;74;21160;-73
2022/11/19 04:15:14;;;;;;;7.83;2.55;;;31.20;71.10;;;;;;1906434;73;21127;-73
2022/11/19 04:17:45;;;;;;;4.50;2.00;;;31.30;70.20;;;;;;1913086;73;21151;-74
2022/11/19 04:20:16;;;;;;;4.42;1.82;;;31.40;70.30;;;;;;1888669;74;21168;-74
2022/11/19 04:22:49;;;;;;;5.25;2.10;;;31.50;68.80;;;;;;1879103;76;21178;-73
2022/11/19 04:25:20;;;;;;;5.47;2.00;;;31.60;69.30;;;;;;1890023;75;21060;-73
2022/11/19 04:27:54;;;;;;;4.22;2.30;;;31.60;69.40;;;;;;1884835;76;21146;-73
2022/11/19 04:30:25;;;;;;;4.83;1.80;;;31.80;69.40;;;;;;1883864;76;21181;-74
2022/11/19 04:32:56;;;;;;;3.85;1.82;;;31.80;69.10;;;;;;1893040;74;21182;-74
2022/11/19 04:35:30;;;;;;;5.05;1.67;;;31.90;68.80;;;;;;1897892;75;21599;-74
2022/11/19 04:38:01;;;;;;;4.55;2.42;;;31.90;68.60;;;;;;1899590;75;21761;-74
2022/11/19 04:40:33;;;;;;;6.92;1.98;;;32.00;68.40;;;;;;1888284;76;21627;-74
2022/11/19 04:43:04;;;;;;;5.00;1.87;;;32.00;67.90;;;;;;1860412;76;21591;-77
2022/11/19 04:45:35;;;;;;;5.70;2.10;;;32.10;67.30;;;;;;1889307;74;21151;-76
2022/11/19 04:48:27;;;;;;;5.20;2.10;;;32.20;67.20;;;;;;1886857;74;21670;-77
2022/11/19 04:50:59;;;;;;;6.17;2.30;;;32.30;67.60;;;;;;1856138;76;21203;-75
2022/11/19 04:53:38;;;;;;;5.83;2.40;;;32.40;67.00;;;;;;1880232;75;21564;-75
2022/11/19 04:56:17;;;;;;;7.00;2.05;;;32.40;66.70;;;;;;1873928;76;21191;-77
2022/11/19 04:58:56;;;;;;;6.37;1.95;;;32.40;66.50;;;;;;1881067;76;21107;-79
2022/11/19 05:01:49;;;;;;;6.28;2.10;;;32.50;66.90;;;;;;1832311;76;21172;-77
2022/11/19 05:04:23;;;;;;;6.20;2.00;;;32.50;66.80;;;;;;1835142;77;21182;-74
2022/11/19 05:06:59;;;;;;;4.90;1.95;;;32.40;67.00;;;;;;1806096;77;21198;-75
2022/11/19 05:09:31;;;;;;;7.73;2.40;;;32.40;66.70;;;;;;1877783;75;21650;-75
2022/11/19 05:14:40;;;;;;;;;;;32.30;66.50;;;;;;1824443;76;21563;-74
2022/11/19 05:17:11;;;;;;;4.70;1.90;;;32.30;67.40;;;;;;1894884;74;20167;-73
2022/11/19 05:19:43;;;;;;;5.08;2.27;;;32.40;66.50;;;;;;1922495;73;21187;-73
2022/11/19 05:22:14;;;;;;;5.37;2.02;;;32.40;66.40;;;;;;1927256;73;21167;-74
2022/11/19 05:24:56;;;;;;;4.45;2.00;;;32.40;66.40;;;;;;1920992;73;21573;-75
2022/11/19 05:27:40;;;;;;;6.55;2.10;;;32.40;66.00;;;;;;1940280;73;21941;-75
2022/11/19 05:30:27;;;;;;;4.80;1.92;;;32.60;64.90;;;;;;1820541;77;21285;-75
2022/11/19 05:33:20;;;;;;;;;;;;;;;;;;;;;
2022/11/19 05:35:58;;;;;;;5.97;1.98;;;32.80;63.70;;;;;;1926167;73;21134;-74
2022/11/19 05:38:33;;;;;;;4.30;1.97;;;32.90;63.10;;;;;;1882598;75;21182;-74
2022/11/19 05:41:05;;;;;;;2.98;1.65;;;32.90;63.50;;;;;;1920802;74;21100;-75
2022/11/19 05:43:41;;;;;;;3.20;1.47;;;32.90;62.70;;;;;;1889044;75;21611;-75
2022/11/19 05:46:19;;;;;;;3.83;1.70;;;32.80;63.10;;;;;;1924801;73;21162;-76
2022/11/19 05:48:50;;;;;;;5.12;2.02;;;32.60;63.20;;;;;;1905236;73;21614;-76
2022/11/19 05:51:24;;;;;;;5.17;1.65;;;32.60;64.10;;;;;;1924977;73;21099;-77
2022/11/19 05:53:56;;;;;;;5.22;1.65;;;32.60;63.20;;;;;;1920106;74;21135;-75
2022/11/19 05:56:27;;;;;;;5.03;1.75;;;32.70;63.50;;;;;;1917533;74;21038;-76
2022/11/19 05:58:58;;;;;;;5.15;1.70;;;32.70;63.70;;;;;;1917608;74;21135;-74
2022/11/19 06:01:35;;;;;;;5.62;1.55;;;32.70;64.00;;;;;;1927964;73;21143;-75
2022/11/19 06:04:07;;;;;;;3.95;1.92;;;32.70;64.60;;;;;;1929996;73;21536;-79
2022/11/19 06:06:38;;;;;;;4.45;1.65;;;32.70;64.90;;;;;;1922155;74;21063;-74
2022/11/19 06:09:09;;;;;;;3.90;1.77;;;32.80;64.00;;;;;;1872183;74;21500;-77
2022/11/19 06:11:49;;;;;;;4.72;2.00;;;32.80;64.30;;;;;;1925710;74;21593;-76
2022/11/19 06:14:23;;;;;;;3.72;1.60;;;32.80;64.40;;;;;;1837875;77;21701;-75
2022/11/19 06:16:57;;;;;;;4.03;2.02;;;32.90;64.20;;;;;;1911358;74;21107;-75
2022/11/19 06:19:29;;;;;;;10.60;6.42;;;32.80;64.30;;;;;;1918549;73;21575;-76
2022/11/19 06:22:01;;;;;;;5.78;3.05;;;32.80;64.80;;;;;;1902135;75;21298;-76
2022/11/19 06:24:33;;;;;;;8.65;5.58;;;32.90;64.80;;;;;;1818857;78;21170;-76
2022/11/19 06:27:09;;;;;;;17.55;13.20;;;32.90;65.00;;;;;;1905828;75;21167;-76
2022/11/19 06:29:38;;;;;;;9.08;3.90;;;32.90;65.30;;;;;;1856688;77;21205;-77
2022/11/19 06:32:10;;;;;;;4.72;2.37;;;32.90;65.50;;;;;;1916476;74;21144;-73
2022/11/19 06:34:41;;;;;;;5.78;2.27;;;32.90;65.10;;;;;;1909526;74;21178;-74
2022/11/19 06:37:12;;;;;;;6.00;2.10;;;33.00;64.90;;;;;;1894933;75;21466;-74
2022/11/19 06:39:43;;;;;;;4.75;2.00;;;33.00;64.70;;;;;;1897779;75;21092;-73
2022/11/19 06:45:04;;;;;;;5.40;2.33;;;33.00;65.20;;;;;;1916908;75;21602;-73
2022/11/19 06:47:38;;;;;;;7.65;1.92;;;32.90;65.60;;;;;;1901508;73;21232;-74
2022/11/19 06:50:11;;;;;;;6.70;2.52;;;32.90;65.70;;;;;;1912610;74;21660;-72
2022/11/19 06:52:52;;;;;;;;;;;;;;;;;;;;;
2022/11/19 06:55:18;;;;;;;3.30;2.05;;;32.90;65.60;;;;;;1907504;74;21248;-73
2022/11/19 06:57:52;;;;;;;4.78;2.17;;;32.90;65.60;;;;;;1892595;73;21607;-73
2022/11/19 07:00:24;;;;;;;6.83;2.55;;;33.00;64.90;;;;;;1904221;75;21610;-73
2022/11/19 07:02:54;;;;;;;5.25;2.50;;;33.00;65.10;;;;;;1900455;73;21237;-74
2022/11/19 07:05:26;;;;;;;9.65;2.08;;;33.00;65.10;;;;;;1854593;76;21202;-72
2022/11/19 07:07:57;;;;;;;6.97;2.50;;;33.00;65.30;;;;;;1910260;73;21131;-73
2022/11/19 07:10:36;;;;;;;6.70;2.45;;;33.10;65.30;;;;;;1905426;74;21135;-75
2022/11/19 07:14:08;;;;;;;5.00;2.47;;;33.10;65.50;;;;;;1906615;73;21212;-72
2022/11/19 07:16:34;;;;;;;5.10;2.47;;;33.20;65.10;;;;;;1854651;73;21115;-73
2022/11/19 07:19:07;;;;;;;7.60;2.40;;;33.30;65.60;;;;;;1916215;73;21092;-74
2022/11/19 07:21:39;;;;;;;5.37;2.40;;;33.30;65.40;;;;;;1921931;74;21504;-73
2022/11/19 07:24:11;;;;;;;5.30;2.40;;;33.20;65.10;;;;;;1916117;74;21532;-73
2022/11/19 07:26:43;;;;;;;4.12;2.30;;;33.10;65.30;;;;;;1911846;74;21139;-73
2022/11/19 07:29:18;;;;;;;5.80;2.72;;;33.00;65.20;;;;;;1913290;74;21642;-73
2022/11/19 07:31:52;;;;;;;4.50;2.08;;;32.90;65.30;;;;;;1896364;74;21598;-73
2022/11/19 07:34:48;;;;;;;;;;;;;;;;;;;;;
2022/11/19 07:37:11;;;;;;;4.78;2.30;;;32.70;66.30;;;;;;1920925;73;21225;-74
2022/11/19 07:39:45;;;;;;;4.72;2.25;;;32.70;66.80;;;;;;1906493;74;21099;-72
2022/11/19 07:45:04;;;;;;;6.17;2.20;;;32.70;66.40;;;;;;1907853;74;21088;-74
2022/11/19 07:47:36;;;;;;;3.77;2.17;;;32.70;66.80;;;;;;1921013;74;21131;-75
2022/11/19 07:50:09;;;;;;;5.40;2.35;;;32.70;66.40;;;;;;1912759;74;21215;-76
2022/11/19 07:52:41;;;;;;;5.67;2.70;;;32.80;67.00;;;;;;1928167;74;21251;-76
2022/11/19 07:55:12;;;;;;;6.25;2.65;;;32.70;66.80;;;;;;1926814;74;21071;-73
2022/11/19 07:57:43;;;;;;;4.75;2.17;;;32.60;67.40;;;;;;1927994;74;21134;-73
2022/11/19 08:00:15;;;;;;;8.00;2.42;;;32.60;67.00;;;;;;1927467;74;21218;-74
2022/11/19 08:02:50;;;;;;;6.78;2.40;;;32.60;66.60;;;;;;1927421;74;21149;-74
2022/11/19 08:05:19;;;;;;;8.25;2.67;;;32.60;66.90;;;;;;1922437;74;21078;-73
2022/11/19 08:07:55;;;;;;;5.62;2.77;;;32.70;67.40;;;;;;1884479;76;21117;-72
2022/11/19 08:10:29;;;;;;;5.00;2.58;;;32.70;68.20;;;;;;1927914;74;21102;-74
2022/11/19 08:13:03;;;;;;;5.83;2.75;;;32.70;67.40;;;;;;1919883;74;21187;-74
2022/11/19 08:15:35;;;;;;;9.40;2.95;;;32.70;67.30;;;;;;1923016;74;21158;-74
2022/11/19 08:18:12;;;;;;;4.65;2.17;;;32.60;67.40;;;;;;1884949;76;21577;-72
2022/11/19 08:20:47;;;;;;;4.28;2.42;;;32.60;67.10;;;;;;1918154;73;21594;-74
2022/11/19 08:23:20;;;;;;;;;;;32.70;66.90;;;;;;1853287;77;21082;-74
2022/11/19 08:25:51;;;;;;;6.95;2.35;;;32.60;67.00;;;;;;1873400;75;20496;-73
2022/11/19 08:28:24;;;;;;;4.60;2.75;;;32.70;67.10;;;;;;1862628;76;21103;-73
2022/11/19 08:31:10;;;;;;;4.62;2.33;;;32.70;67.50;;;;;;1909894;73;21220;-72
2022/11/19 08:33:41;;;;;;;4.22;2.37;;;32.70;67.80;;;;;;1918641;75;21176;-72
2022/11/19 08:36:13;;;;;;;10.45;2.50;;;32.70;67.20;;;;;;1873684;75;21268;-72
2022/11/19 08:38:46;;;;;;;4.30;2.22;;;32.70;67.00;;;;;;1912340;74;21245;-72
2022/11/19 08:44:06;;;;;;;3.95;2.20;;;32.70;66.90;;;;;;1922335;73;21192;-74
2022/11/19 08:46:40;;;;;;;4.08;2.50;;;32.70;66.50;;;;;;1846143;77;21157;-72
2022/11/19 08:49:17;;;;;;;5.70;2.60;;;32.70;66.90;;;;;;1892788;75;21278;-76
2022/11/19 08:51:48;;;;;;;4.65;2.60;;;32.60;66.30;;;;;;1923241;73;21221;-73
2022/11/19 08:54:19;;;;;;;5.37;2.30;;;32.60;66.70;;;;;;1925953;73;21520;-74
2022/11/19 08:56:51;;;;;;;4.17;2.58;;;32.50;66.90;;;;;;1927370;73;21076;-72
2022/11/19 08:59:23;;;;;;;6.67;2.52;;;32.60;66.90;;;;;;1925010;73;21155;-74
2022/11/19 09:01:54;;;;;;;4.83;2.72;;;32.60;66.80;;;;;;1918181;73;21173;-73
2022/11/19 09:04:26;;;;;;;4.75;2.45;;;32.60;66.80;;;;;;1887658;75;21119;-74
2022/11/19 09:06:57;;;;;;;5.42;2.52;;;32.60;67.00;;;;;;1864789;75;21160;-73
2022/11/19 09:09:29;;;;;;;5.65;2.92;;;32.60;66.90;;;;;;1850238;76;21175;-73
2022/11/19 09:12:00;;;;;;;5.45;2.35;;;32.60;67.00;;;;;;1831988;77;21197;-75
2022/11/19 09:14:33;;;;;;;6.37;2.80;;;32.50;67.20;;;;;;1918218;73;21108;-73
2022/11/19 09:17:05;;;;;;;6.50;2.77;;;32.50;68.10;;;;;;1901556;73;21668;-74
2022/11/19 09:19:36;;;;;;;5.35;2.52;;;32.50;66.80;;;;;;1892806;75;21138;-73
2022/11/19 09:22:08;;;;;;;5.28;3.10;;;32.50;67.00;;;;;;1886132;73;21626;-74
2022/11/19 09:24:39;;;;;;;6.00;2.77;;;32.40;67.10;;;;;;1862244;76;21225;-73
2022/11/19 09:27:11;;;;;;;5.28;2.52;;;32.40;67.10;;;;;;1915036;75;21135;-73
2022/11/19 09:29:42;;;;;;;5.83;2.95;;;32.40;67.10;;;;;;1846807;76;21213;-73
2022/11/19 09:32:13;;;;;;;4.55;2.55;;;32.40;67.60;;;;;;1849018;76;21604;-72
2022/11/19 09:34:47;;;;;;;5.75;2.70;;;32.40;68.20;;;;;;1923407;73;21120;-74
2022/11/19 09:37:18;;;;;;;4.58;2.62;;;32.40;67.90;;;;;;1924653;74;21076;-72
2022/11/19 09:39:49;;;;;;;6.85;3.08;;;32.40;68.20;;;;;;1877226;76;21173;-73
2022/11/19 09:42:46;;;;;;;6.72;3.20;;;32.30;68.60;;;;;;1904658;73;21171;-74
2022/11/19 09:45:23;;;;;;;8.35;3.65;;;32.30;68.60;;;;;;1882201;75;21214;-73
2022/11/19 09:48:12;;;;;;;5.40;3.20;;;32.20;69.20;;;;;;1875510;76;21560;-73
2022/11/19 09:50:45;;;;;;;6.75;3.75;;;32.20;69.20;;;;;;1902692;75;21107;-74
2022/11/19 09:53:29;;;;;;;6.50;2.98;;;32.10;69.60;;;;;;1920144;73;21123;-73
2022/11/19 09:55:53;;;;;;;8.58;3.70;;;32.10;69.70;;;;;;1921170;74;21072;-72
2022/11/19 09:58:42;;;;;;;5.75;2.98;;;32.10;69.50;;;;;;1874423;76;21227;-73
2022/11/19 10:01:18;;;;;;;10.13;4.80;;;32.00;69.40;;;;;;1910851;73;21190;-73
2022/11/19 10:03:51;;;;;;;10.95;3.70;;;32.00;69.70;;;;;;1932998;73;21152;-75
2022/11/19 10:06:27;;;;;;;6.75;3.20;;;31.90;69.80;;;;;;1876725;75;21100;-74
2022/11/19 10:09:08;;;;;;;6.53;3.55;;;31.90;70.00;;;;;;1895349;73;21097;-75
2022/11/19 10:11:57;;;;;;;5.87;3.02;;;31.80;70.00;;;;;;1914224;73;21733;-73
2022/11/19 10:14:50;;;;;;;5.78;2.92;;;31.80;69.90;;;;;;1914121;73;21189;-72
2022/11/19 10:17:47;;;;;;;6.17;3.22;;;31.70;69.80;;;;;;1931554;73;21126;-73
2022/11/19 10:20:52;;;;;;;5.80;3.52;;;31.70;70.20;;;;;;1893098;73;21131;-75
2022/11/19 10:23:28;;;;;;;7.08;3.30;;;31.60;70.40;;;;;;1894126;74;21183;-75
2022/11/19 10:26:02;;;;;;;5.28;3.47;;;31.60;70.10;;;;;;1897788;73;21234;-71
2022/11/19 10:28:41;;;;;;;6.47;3.80;;;31.60;70.30;;;;;;1918936;74;21235;-74
2022/11/19 10:31:29;;;;;;;6.22;3.20;;;31.50;70.40;;;;;;1906432;74;21221;-73
2022/11/19 10:34:06;;;;;;;9.38;4.35;;;31.50;70.60;;;;;;1920147;73;21236;-73
2022/11/19 10:36:51;;;;;;;7.35;4.72;;;31.50;70.10;;;;;;1916671;73;21139;-72
2022/11/19 10:39:43;;;;;;;5.65;3.90;;;31.40;70.90;;;;;;1925714;73;21607;-72
2022/11/19 10:42:27;;;;;;;7.20;3.98;;;31.40;71.10;;;;;;1899088;73;21166;-75
2022/11/19 10:45:22;;;;;;;7.92;4.10;;;31.40;71.40;;;;;;1919036;73;21194;-76
2022/11/19 10:48:22;;;;;;;;;;;;;;;;;;;;;
2022/11/19 10:50:56;;;;;;;9.28;4.78;;;31.30;72.70;;;;;;1905984;74;21127;-72
2022/11/19 10:53:49;;;;;;;7.60;4.37;;;31.30;72.00;;;;;;1918938;73;21214;-73
2022/11/19 10:56:43;;;;;;;;;;;31.20;72.00;;;;;;1909753;75;21176;-74
2022/11/19 10:59:34;;;;;;;7.65;4.90;;;31.20;72.00;;;;;;1798955;78;20176;-72
2022/11/19 11:02:13;;;;;;;9.03;4.40;;;31.20;72.40;;;;;;1836692;73;21193;-74
2022/11/19 11:05:15;;;;;;;10.55;4.60;;;31.20;72.60;;;;;;1927710;73;21205;-73
2022/11/19 11:08:01;;;;;;;9.88;4.80;;;31.20;72.80;;;;;;1836489;77;21544;-73
2022/11/19 11:10:44;;;;;;;10.18;5.10;;;31.10;72.90;;;;;;1922564;73;21052;-74
2022/11/19 11:22:43;;;;;;;11.93;6.40;;;31.00;73.60;;;;;;1925564;74;21135;-74
2022/11/19 11:29:19;;;;;;;15.90;8.43;;;31.00;74.10;;;;;;1721404;80;21164;-73
2022/11/19 11:32:14;;;;;;;15.90;7.60;;;30.90;74.60;;;;;;1772582;79;21812;-74
2022/11/19 11:34:59;;;;;;;15.05;6.70;;;30.90;74.70;;;;;;1729781;81;21140;-72
2022/11/19 11:37:33;;;;;;;14.35;7.25;;;30.90;75.20;;;;;;1834568;77;21630;-76
2022/11/19 11:40:06;;;;;;;13.58;7.85;;;30.90;75.50;;;;;;1885604;73;21139;-74
2022/11/19 11:42:42;;;;;;;15.45;7.90;;;30.80;75.90;;;;;;1921743;73;21521;-75
2022/11/19 11:48:00;;;;;;;13.05;7.95;;;30.70;76.40;;;;;;1837248;77;21183;-74
2022/11/19 11:50:32;;;;;;;13.58;7.47;;;30.70;76.60;;;;;;1919901;74;21678;-74
2022/11/19 11:53:12;;;;;;;17.00;7.50;;;30.60;76.60;;;;;;1918451;73;21179;-76
2022/11/19 11:56:02;;;;;;;16.45;8.18;;;30.60;76.70;;;;;;1906259;73;21661;-74
2022/11/19 11:58:38;;;;;;;12.65;7.58;;;30.60;76.80;;;;;;1912981;74;21135;-76
2022/11/19 12:01:19;;;;;;;16.00;7.97;;;30.60;76.80;;;;;;1922981;73;21214;-76
2022/11/19 12:04:15;;;;;;;13.28;7.22;;;30.50;76.70;;;;;;1910965;73;21704;-75
2022/11/19 12:07:59;;;;;;;;;;;;;;;;;;;;;
2022/11/19 12:14:12;;;;;;;;;;;30.40;76.70;;;;;;1836106;77;21227;-84
2022/11/19 12:20:48;;;;;;;16.20;8.58;;;30.40;76.90;;;;;;1784370;78;21226;-86
2022/11/19 12:23:50;;;;;;;16.07;9.28;;;30.30;76.90;;;;;;1846271;76;21345;-84
2022/11/19 12:26:52;;;;;;;19.05;9.80;;;30.30;77.20;;;;;;1920856;73;21120;-85
2022/11/19 12:29:26;;;;;;;18.00;10.13;;;30.30;77.40;;;;;;1890185;74;21165;-84
2022/11/19 12:32:19;;;;;;;19.37;11.03;;;30.30;77.60;;;;;;1930933;73;21208;-84
2022/11/19 12:35:01;;;;;;;18.73;10.65;;;30.20;77.60;;;;;;1932977;73;21220;-84
2022/11/19 12:37:46;;;;;;;17.35;9.18;;;30.30;77.70;;;;;;1937221;73;21106;-85
2022/11/19 12:40:32;;;;;;;13.48;8.43;;;30.20;77.60;;;;;;1883495;74;21138;-85
2022/11/19 12:43:51;;;;;;;14.50;8.43;;;30.20;77.40;;;;;;1937393;73;21772;-85
2022/11/19 12:46:39;;;;;;;14.53;8.58;;;30.10;77.50;;;;;;1948167;73;21083;-85
2022/11/19 12:49:21;;;;;;;12.95;7.65;;;30.10;77.60;;;;;;1899530;74;21133;-84
2022/11/19 12:52:11;;;;;;;13.08;7.87;;;30.10;77.60;;;;;;1954548;71;21032;-85
2022/11/19 12:55:13;;;;;;;14.35;7.30;;;30.00;77.40;;;;;;1936500;73;21111;-85
2022/11/19 12:58:16;;;;;;;14.23;7.20;;;30.00;77.30;;;;;;1923125;73;21146;-84
2022/11/19 13:01:36;;;;;;;12.47;7.30;;;30.00;77.50;;;;;;1886072;74;21210;-85
2022/11/19 13:04:27;;;;;;;11.40;6.35;;;29.90;77.20;;;;;;1842195;76;21151;-85
2022/11/19 13:07:06;;;;;;;14.18;6.50;;;29.90;77.30;;;;;;1935300;73;21079;-85
2022/11/19 13:09:55;;;;;;;12.93;6.33;;;29.90;77.20;;;;;;1928360;73;21312;-84
2022/11/19 13:12:27;;;;;;;12.10;5.90;;;29.90;77.30;;;;;;1885857;75;21240;-83
2022/11/19 13:15:06;;;;;;;14.07;6.50;;;29.80;77.20;;;;;;1919781;74;21099;-84
2022/11/19 13:17:43;;;;;;;8.93;5.37;;;29.80;77.20;;;;;;1925581;74;21217;-83
2022/11/19 13:20:33;;;;;;;10.65;5.87;;;29.70;76.90;;;;;;1924473;74;21677;-84
2022/11/19 13:23:06;;;;;;;13.43;6.30;;;29.70;77.00;;;;;;1907498;74;21184;-85
2022/11/19 13:25:46;;;;;;;10.43;5.35;;;29.70;76.90;;;;;;1908672;75;21190;-84
2022/11/19 13:28:22;;;;;;;9.90;5.42;;;29.60;76.80;;;;;;1896164;75;21156;-84
2022/11/19 13:30:55;;;;;;;12.90;5.28;;;29.60;76.90;;;;;;1888051;75;21137;-83
2022/11/19 13:33:33;;;;;;;11.68;5.53;;;29.60;76.90;;;;;;1905331;75;21591;-84
2022/11/19 13:36:10;;;;;;;10.30;5.10;;;29.60;77.00;;;;;;1884783;75;21218;-83
2022/11/19 13:38:46;;;;;;;8.33;4.65;;;29.60;76.90;;;;;;1891182;75;21128;-84
2022/11/19 13:41:20;;;;;;;;;;;29.60;77.00;;;;;;1913510;75;21248;-84
2022/11/19 13:47:05;;;;;;;8.65;4.62;;;29.50;76.90;;;;;;1875313;75;21183;-84
2022/11/19 13:49:53;;;;;;;13.60;5.12;;;29.50;76.90;;;;;;1859626;76;21120;-84
2022/11/19 13:52:40;;;;;;;11.05;5.05;;;29.50;76.80;;;;;;1879848;75;21148;-83
2022/11/19 13:55:40;;;;;;;13.75;5.05;;;29.50;76.90;;;;;;1866355;75;21163;-84
2022/11/19 13:58:48;;;;;;;11.25;5.35;;;29.40;77.30;;;;;;1903096;75;21566;-83
2022/11/19 14:01:42;;;;;;;9.78;4.70;;;29.40;77.10;;;;;;1845102;77;21608;-83
2022/11/19 14:04:31;;;;;;;8.85;4.60;;;29.40;77.30;;;;;;1895898;75;21669;-83
2022/11/19 14:07:32;;;;;;;13.93;4.60;;;29.30;77.30;;;;;;1899274;75;21161;-84
2022/11/19 14:28:50;;;;;;;8.23;4.42;;;29.20;78.50;;;;;;1827615;76;21790;-84
2022/11/19 14:31:24;;;;;;;7.00;4.25;;;29.10;78.80;;;;;;1888740;74;21120;-84
2022/11/19 14:34:02;;;;;;;6.53;3.90;;;29.10;78.90;;;;;;1880371;74;21086;-84
2022/11/19 14:36:57;;;;;;;7.17;3.90;;;29.00;79.00;;;;;;1902313;74;21122;-85
2022/11/19 14:39:32;;;;;;;8.53;4.30;;;29.00;79.30;;;;;;1895292;75;21127;-83
2022/11/19 14:42:19;;;;;;;;;;;29.00;79.50;;;;;;1906162;74;21213;-84
2022/11/19 14:45:05;;;;;;;6.87;3.83;;;29.00;79.20;;;;;;1904172;74;20158;-83
2022/11/19 14:47:50;;;;;;;6.55;3.80;;;28.90;79.60;;;;;;1768401;80;21677;-83
2022/11/19 14:50:29;;;;;;;6.65;3.90;;;28.90;79.80;;;;;;1770045;80;21096;-83
2022/11/19 14:53:01;;;;;;;6.00;3.95;;;28.90;80.00;;;;;;1845212;74;21139;-83
2022/11/19 14:55:34;;;;;;;7.25;4.45;;;28.90;80.00;;;;;;1911461;74;21136;-84
2022/11/19 14:58:22;;;;;;;7.08;3.87;;;28.90;80.10;;;;;;1903121;74;21106;-85
2022/11/19 15:01:07;;;;;;;4.90;3.67;;;28.80;80.00;;;;;;1906744;74;21735;-84
2022/11/19 15:03:41;;;;;;;6.37;3.80;;;28.80;80.20;;;;;;1905480;75;21614;-83
2022/11/19 15:06:14;;;;;;;6.37;4.12;;;28.90;80.50;;;;;;1901238;75;21150;-84